Terminal Aerodrome Forecast
Issued by NWS

Home | Current Version | Previous Version | Text Only | Print | Product List | Glossary On
Versions: 1 2 3 4 5 6 7 8 9 10 11 12 13 14 15 16 17 18 19 20 21 22 23 24 25 26 27 28 29 30 31 32 33 34 35 36 37 38 39 40 41 42 43 44 45 46 47 48
815
FTUS46 KEKA 241720
TAFACV
TAF
KACV 241720Z 2418/2518 VRB03KT P6SM VCSH BKN040
     FM242000 23007KT 6SM -SHRA SCT025 OVC035
     FM250200 14003KT P6SM VCSH OVC040
     FM250700 13005KT 6SM -SHRA BKN035 OVC050
     FM251500 11005KT P6SM VCSH BKN060=

USA.gov is the U.S. government's official web portal to all federal, state and local government web resources and services.